CDG2165 ZSAM-ZSPD
Flight info
| Callsign | CDG2165 |
|---|---|
| Flight time | 1h 19m |
| Altitude | 26600 |
| Route | DOVPU5U DOVPU W643 FOC W644 ANLUD B221 SHZ W58 XSY |
| Aircraft | B738/M-SDE2E3FGHIRWXY/LB1 |
Departure
| Time | 2026-04-30 13:48 |
|---|---|
| Airport | Xiamen Gaoqi International Airport (ZSAM) |
Arrival
| Time | 2026-04-30 15:07 |
|---|---|
| Airport | Shanghai Pudong International Airport (ZSPD) |
| Time | Latitude | Longitude | Altitude | Speed | Heading |
|---|---|---|---|---|---|
| 2026-04-30 13:32 | 24.54175 | 118.13123 | 70 ft | 0 kts | 142° |
| 2026-04-30 13:39 | 24.54181 | 118.13119 | 70 ft | 2 kts | 142° |
| 2026-04-30 13:39 | 24.54205 | 118.13098 | 70 ft | 2 kts | 142° |
| 2026-04-30 13:40 | 24.54218 | 118.13088 | 70 ft | 2 kts | 160° |
| 2026-04-30 13:40 | 24.54232 | 118.13086 | 70 ft | 2 kts | 189° |
| 2026-04-30 13:40 | 24.54246 | 118.13091 | 70 ft | 2 kts | 218° |
| 2026-04-30 13:40 | 24.54252 | 118.13098 | 70 ft | 1 kts | 233° |
| 2026-04-30 13:41 | 24.54256 | 118.13103 | 70 ft | 0 kts | 232° |
| 2026-04-30 13:42 | 24.54255 | 118.13102 | 70 ft | 0 kts | 232° |
| 2026-04-30 13:42 | 24.54222 | 118.13056 | 70 ft | 7 kts | 232° |
| 2026-04-30 13:43 | 24.54179 | 118.12997 | 70 ft | 11 kts | 232° |
| 2026-04-30 13:43 | 24.54128 | 118.12925 | 70 ft | 11 kts | 232° |
| 2026-04-30 13:43 | 24.54113 | 118.12859 | 70 ft | 10 kts | 312° |
| 2026-04-30 13:43 | 24.54175 | 118.12804 | 70 ft | 12 kts | 321° |
| 2026-04-30 13:44 | 24.54170 | 118.12719 | 70 ft | 13 kts | 234° |
| 2026-04-30 13:44 | 24.54106 | 118.12629 | 70 ft | 16 kts | 232° |
| 2026-04-30 13:44 | 24.54031 | 118.12525 | 70 ft | 18 kts | 232° |
| 2026-04-30 13:44 | 24.53952 | 118.12415 | 70 ft | 19 kts | 232° |
| 2026-04-30 13:45 | 24.53797 | 118.12199 | 70 ft | 16 kts | 232° |
| 2026-04-30 13:45 | 24.53721 | 118.12092 | 70 ft | 18 kts | 232° |
| 2026-04-30 13:45 | 24.53654 | 118.11997 | 70 ft | 16 kts | 232° |
| 2026-04-30 13:46 | 24.53580 | 118.11893 | 70 ft | 18 kts | 232° |
| 2026-04-30 13:46 | 24.53497 | 118.11777 | 70 ft | 17 kts | 232° |
| 2026-04-30 13:46 | 24.53449 | 118.11685 | 70 ft | 13 kts | 276° |
| 2026-04-30 13:46 | 24.53483 | 118.11646 | 70 ft | 0 kts | 334° |
| 2026-04-30 13:47 | 24.53494 | 118.11639 | 70 ft | 3 kts | 334° |
| 2026-04-30 13:47 | 24.53521 | 118.11625 | 70 ft | 5 kts | 333° |
| 2026-04-30 13:47 | 24.53561 | 118.11606 | 70 ft | 7 kts | 2° |
| 2026-04-30 13:47 | 24.53607 | 118.11639 | 70 ft | 9 kts | 50° |
| 2026-04-30 13:48 | 24.53754 | 118.11845 | 70 ft | 77 kts | 53° |
| 2026-04-30 13:48 | 24.54267 | 118.12560 | 70 ft | 158 kts | 52° |
| 2026-04-30 13:48 | 24.55012 | 118.13563 | 766 ft | 172 kts | 52° |
| 2026-04-30 13:48 | 24.55733 | 118.14560 | 1663 ft | 178 kts | 53° |
| 2026-04-30 13:49 | 24.56501 | 118.15652 | 2352 ft | 187 kts | 51° |
| 2026-04-30 13:49 | 24.57336 | 118.16812 | 2905 ft | 203 kts | 50° |
| 2026-04-30 13:49 | 24.58257 | 118.18091 | 3436 ft | 223 kts | 50° |
| 2026-04-30 13:49 | 24.59238 | 118.19462 | 4048 ft | 239 kts | 50° |
| 2026-04-30 13:50 | 24.60309 | 118.20963 | 4622 ft | 257 kts | 51° |
| 2026-04-30 13:50 | 24.62972 | 118.23793 | 6037 ft | 277 kts | 30° |
| 2026-04-30 13:50 | 24.64652 | 118.24841 | 6856 ft | 282 kts | 26° |
| 2026-04-30 13:51 | 24.66389 | 118.25856 | 7687 ft | 287 kts | 26° |
| 2026-04-30 13:51 | 24.68144 | 118.26920 | 8492 ft | 292 kts | 27° |
| 2026-04-30 13:51 | 24.69918 | 118.28043 | 9258 ft | 298 kts | 28° |
| 2026-04-30 13:51 | 24.71703 | 118.29195 | 10006 ft | 303 kts | 28° |
| 2026-04-30 13:52 | 24.73547 | 118.30399 | 10673 ft | 312 kts | 28° |
| 2026-04-30 13:52 | 24.75470 | 118.31648 | 11107 ft | 329 kts | 28° |
| 2026-04-30 13:52 | 24.77461 | 118.32937 | 11529 ft | 344 kts | 28° |
| 2026-04-30 13:52 | 24.79567 | 118.34298 | 11944 ft | 359 kts | 28° |
| 2026-04-30 13:53 | 24.81775 | 118.35727 | 12306 ft | 374 kts | 28° |
| 2026-04-30 13:53 | 24.84037 | 118.37194 | 12956 ft | 379 kts | 28° |
| 2026-04-30 13:53 | 24.86332 | 118.38685 | 13588 ft | 384 kts | 27° |
| 2026-04-30 13:53 | 24.88639 | 118.40183 | 14234 ft | 387 kts | 27° |
| 2026-04-30 13:54 | 24.90927 | 118.41734 | 14883 ft | 391 kts | 30° |
| 2026-04-30 13:54 | 24.93144 | 118.43512 | 15460 ft | 398 kts | 36° |
| 2026-04-30 13:54 | 24.95261 | 118.45556 | 16074 ft | 403 kts | 40° |
| 2026-04-30 13:54 | 24.97247 | 118.47712 | 16612 ft | 408 kts | 42° |
| 2026-04-30 13:55 | 24.99232 | 118.49993 | 17183 ft | 412 kts | 43° |
| 2026-04-30 13:55 | 25.01199 | 118.52298 | 17731 ft | 416 kts | 43° |
| 2026-04-30 13:55 | 25.03204 | 118.54652 | 18247 ft | 421 kts | 43° |
| 2026-04-30 13:55 | 25.05205 | 118.56991 | 18843 ft | 423 kts | 43° |
| 2026-04-30 13:56 | 25.07212 | 118.59392 | 19350 ft | 428 kts | 46° |
| 2026-04-30 13:56 | 25.09054 | 118.61977 | 19889 ft | 433 kts | 51° |
| 2026-04-30 13:56 | 25.10727 | 118.64766 | 20385 ft | 439 kts | 55° |
| 2026-04-30 13:56 | 25.12277 | 118.67686 | 20925 ft | 443 kts | 57° |
| 2026-04-30 13:57 | 25.13760 | 118.70670 | 21392 ft | 447 kts | 58° |
| 2026-04-30 13:57 | 25.15220 | 118.73697 | 21818 ft | 452 kts | 59° |
| 2026-04-30 13:57 | 25.16677 | 118.76753 | 22320 ft | 454 kts | 59° |
| 2026-04-30 13:57 | 25.18149 | 118.79847 | 22782 ft | 458 kts | 59° |
| 2026-04-30 13:58 | 25.19652 | 118.82999 | 23193 ft | 462 kts | 59° |
| 2026-04-30 13:58 | 25.22660 | 118.89292 | 24107 ft | 468 kts | 59° |
| 2026-04-30 13:58 | 25.24197 | 118.92478 | 24574 ft | 471 kts | 58° |
| 2026-04-30 13:59 | 25.25786 | 118.95608 | 24970 ft | 474 kts | 56° |
| 2026-04-30 13:59 | 25.27635 | 118.98599 | 25625 ft | 468 kts | 49° |
| 2026-04-30 13:59 | 25.29701 | 119.01356 | 26194 ft | 466 kts | 44° |
| 2026-04-30 13:59 | 25.31899 | 119.03988 | 26631 ft | 466 kts | 42° |
| 2026-04-30 14:00 | 25.34181 | 119.06591 | 26675 ft | 475 kts | 41° |
| 2026-04-30 14:00 | 25.38896 | 119.11871 | 26684 ft | 494 kts | 41° |
| 2026-04-30 14:00 | 25.41322 | 119.14609 | 26684 ft | 504 kts | 42° |
| 2026-04-30 14:01 | 25.43797 | 119.17429 | 26683 ft | 512 kts | 42° |
| 2026-04-30 14:01 | 25.46312 | 119.20319 | 26683 ft | 520 kts | 42° |
| 2026-04-30 14:01 | 25.48785 | 119.23181 | 26681 ft | 521 kts | 42° |
| 2026-04-30 14:01 | 25.51284 | 119.26092 | 26680 ft | 520 kts | 43° |
| 2026-04-30 14:02 | 25.53755 | 119.28979 | 26682 ft | 521 kts | 43° |
| 2026-04-30 14:02 | 25.56268 | 119.31931 | 26685 ft | 522 kts | 43° |
| 2026-04-30 14:02 | 25.58749 | 119.34860 | 26687 ft | 521 kts | 43° |
| 2026-04-30 14:02 | 25.61225 | 119.37791 | 26685 ft | 521 kts | 43° |
| 2026-04-30 14:03 | 25.63709 | 119.40736 | 26687 ft | 522 kts | 43° |
| 2026-04-30 14:03 | 25.66174 | 119.43660 | 26691 ft | 522 kts | 43° |
| 2026-04-30 14:03 | 25.68659 | 119.46609 | 26691 ft | 523 kts | 43° |
| 2026-04-30 14:03 | 25.71130 | 119.49541 | 26694 ft | 522 kts | 43° |
| 2026-04-30 14:04 | 25.73617 | 119.52471 | 26693 ft | 522 kts | 41° |
| 2026-04-30 14:04 | 25.76185 | 119.55333 | 26694 ft | 520 kts | 39° |
| 2026-04-30 14:04 | 25.78944 | 119.57890 | 26695 ft | 515 kts | 31° |
| 2026-04-30 14:04 | 25.81932 | 119.60059 | 26698 ft | 512 kts | 26° |
| 2026-04-30 14:05 | 25.85044 | 119.61989 | 26699 ft | 508 kts | 22° |
| 2026-04-30 14:05 | 25.88177 | 119.63765 | 26700 ft | 508 kts | 21° |
| 2026-04-30 14:05 | 25.91364 | 119.65500 | 26701 ft | 508 kts | 20° |
| 2026-04-30 14:05 | 25.94589 | 119.67231 | 26701 ft | 508 kts | 20° |
| 2026-04-30 14:06 | 25.97574 | 119.68832 | 26705 ft | 508 kts | 20° |
| 2026-04-30 14:06 | 26.03943 | 119.72246 | 26702 ft | 507 kts | 18° |
| 2026-04-30 14:07 | 26.10584 | 119.74355 | 26700 ft | 490 kts | 360° |
| 2026-04-30 14:07 | 26.13987 | 119.74519 | 26704 ft | 485 kts | 354° |
| 2026-04-30 14:07 | 26.17325 | 119.74428 | 26702 ft | 482 kts | 351° |
| 2026-04-30 14:08 | 26.24041 | 119.73955 | 26703 ft | 479 kts | 350° |
| 2026-04-30 14:08 | 26.27375 | 119.73682 | 26700 ft | 480 kts | 349° |
| 2026-04-30 14:08 | 26.34019 | 119.73164 | 26708 ft | 478 kts | 350° |
| 2026-04-30 14:09 | 26.37337 | 119.72926 | 26711 ft | 476 kts | 350° |
| 2026-04-30 14:09 | 26.40674 | 119.72706 | 26711 ft | 479 kts | 351° |
| 2026-04-30 14:09 | 26.47393 | 119.73273 | 26710 ft | 494 kts | 9° |
| 2026-04-30 14:10 | 26.50626 | 119.74728 | 26718 ft | 505 kts | 21° |
| 2026-04-30 14:10 | 26.53715 | 119.76656 | 26717 ft | 510 kts | 25° |
| 2026-04-30 14:10 | 26.56723 | 119.78725 | 26713 ft | 509 kts | 26° |
| 2026-04-30 14:10 | 26.59678 | 119.80849 | 26715 ft | 511 kts | 27° |
| 2026-04-30 14:11 | 26.62699 | 119.83049 | 26715 ft | 512 kts | 27° |
| 2026-04-30 14:11 | 26.65658 | 119.85209 | 26719 ft | 509 kts | 27° |
| 2026-04-30 14:11 | 26.68647 | 119.87380 | 26719 ft | 510 kts | 27° |
| 2026-04-30 14:11 | 26.71621 | 119.89523 | 26719 ft | 509 kts | 27° |
| 2026-04-30 14:12 | 26.74587 | 119.91648 | 26720 ft | 509 kts | 26° |
| 2026-04-30 14:12 | 26.77584 | 119.93782 | 26719 ft | 511 kts | 26° |
| 2026-04-30 14:12 | 26.80624 | 119.95939 | 26719 ft | 509 kts | 26° |
| 2026-04-30 14:12 | 26.82612 | 119.97349 | 26719 ft | 507 kts | 26° |
| 2026-04-30 14:13 | 26.86565 | 120.00146 | 26726 ft | 508 kts | 26° |
| 2026-04-30 14:13 | 26.89597 | 120.02291 | 26725 ft | 508 kts | 26° |
| 2026-04-30 14:13 | 26.92557 | 120.04387 | 26723 ft | 509 kts | 26° |
| 2026-04-30 14:13 | 26.95556 | 120.06511 | 26723 ft | 510 kts | 26° |
| 2026-04-30 14:14 | 26.98548 | 120.08632 | 26719 ft | 508 kts | 26° |
| 2026-04-30 14:14 | 27.01523 | 120.10744 | 26723 ft | 507 kts | 25° |
| 2026-04-30 14:14 | 27.04534 | 120.12883 | 26729 ft | 508 kts | 25° |
| 2026-04-30 14:14 | 27.07498 | 120.14990 | 26726 ft | 508 kts | 25° |
| 2026-04-30 14:15 | 27.10508 | 120.17130 | 26725 ft | 508 kts | 25° |
| 2026-04-30 14:15 | 27.13501 | 120.19259 | 26728 ft | 507 kts | 25° |
| 2026-04-30 14:15 | 27.16449 | 120.21351 | 26729 ft | 507 kts | 25° |
| 2026-04-30 14:15 | 27.19440 | 120.23464 | 26725 ft | 507 kts | 25° |
| 2026-04-30 14:16 | 27.22440 | 120.25581 | 26723 ft | 506 kts | 25° |
| 2026-04-30 14:16 | 27.25402 | 120.27670 | 26724 ft | 506 kts | 25° |
| 2026-04-30 14:16 | 27.28425 | 120.29802 | 26725 ft | 509 kts | 25° |
| 2026-04-30 14:16 | 27.31397 | 120.31899 | 26723 ft | 508 kts | 25° |
| 2026-04-30 14:17 | 27.34413 | 120.34030 | 26723 ft | 508 kts | 25° |
| 2026-04-30 14:17 | 27.37374 | 120.36128 | 26724 ft | 507 kts | 24° |
| 2026-04-30 14:17 | 27.40395 | 120.38268 | 26725 ft | 507 kts | 24° |
| 2026-04-30 14:17 | 27.43337 | 120.40361 | 26723 ft | 505 kts | 24° |
| 2026-04-30 14:18 | 27.46303 | 120.42471 | 26720 ft | 507 kts | 24° |
| 2026-04-30 14:18 | 27.49299 | 120.44603 | 26727 ft | 507 kts | 24° |
| 2026-04-30 14:18 | 27.55248 | 120.48843 | 26724 ft | 507 kts | 24° |
| 2026-04-30 14:19 | 27.61241 | 120.53117 | 26724 ft | 505 kts | 24° |
| 2026-04-30 14:19 | 27.64185 | 120.55222 | 26720 ft | 506 kts | 24° |
| 2026-04-30 14:19 | 27.67186 | 120.57364 | 26722 ft | 506 kts | 24° |
| 2026-04-30 14:20 | 27.70168 | 120.59479 | 26725 ft | 504 kts | 22° |
| 2026-04-30 14:20 | 27.73188 | 120.61417 | 26728 ft | 498 kts | 18° |
| 2026-04-30 14:20 | 27.79641 | 120.63638 | 26729 ft | 475 kts | 359° |
| 2026-04-30 14:21 | 27.81800 | 120.63950 | 26729 ft | 473 kts | 357° |
| 2026-04-30 14:21 | 27.81848 | 120.63957 | 26730 ft | 472 kts | 357° |
| 2026-04-30 14:21 | 27.85623 | 120.64333 | 26730 ft | 466 kts | 355° |
| 2026-04-30 14:22 | 27.88862 | 120.64578 | 26732 ft | 466 kts | 354° |
| 2026-04-30 14:22 | 27.95339 | 120.65039 | 26730 ft | 468 kts | 355° |
| 2026-04-30 14:22 | 27.98583 | 120.65285 | 26728 ft | 469 kts | 355° |
| 2026-04-30 14:23 | 28.05063 | 120.65829 | 26735 ft | 467 kts | 355° |
| 2026-04-30 14:23 | 28.11575 | 120.66436 | 26730 ft | 467 kts | 356° |
| 2026-04-30 14:24 | 28.18007 | 120.67063 | 26730 ft | 466 kts | 356° |
| 2026-04-30 14:24 | 28.21269 | 120.67384 | 26733 ft | 464 kts | 356° |
| 2026-04-30 14:25 | 28.27717 | 120.68018 | 26729 ft | 465 kts | 356° |
| 2026-04-30 14:25 | 28.34184 | 120.68653 | 26734 ft | 467 kts | 355° |
| 2026-04-30 14:26 | 28.40671 | 120.69292 | 26730 ft | 465 kts | 356° |
| 2026-04-30 14:26 | 28.43887 | 120.69613 | 26729 ft | 465 kts | 355° |
| 2026-04-30 14:26 | 28.50319 | 120.70258 | 26727 ft | 462 kts | 355° |
| 2026-04-30 14:27 | 28.53521 | 120.70580 | 26732 ft | 463 kts | 355° |
| 2026-04-30 14:27 | 28.56724 | 120.70902 | 26728 ft | 462 kts | 355° |
| 2026-04-30 14:27 | 28.59946 | 120.71228 | 26731 ft | 462 kts | 355° |
| 2026-04-30 14:28 | 28.66380 | 120.71877 | 26729 ft | 461 kts | 355° |
| 2026-04-30 14:28 | 28.69591 | 120.72203 | 26728 ft | 462 kts | 355° |
| 2026-04-30 14:28 | 28.72778 | 120.72534 | 26732 ft | 465 kts | 355° |
| 2026-04-30 14:28 | 28.76023 | 120.72886 | 26737 ft | 463 kts | 356° |
| 2026-04-30 14:29 | 28.82441 | 120.73601 | 26733 ft | 465 kts | 355° |
| 2026-04-30 14:29 | 28.87828 | 120.74198 | 26733 ft | 458 kts | 355° |
| 2026-04-30 14:30 | 28.98454 | 120.75295 | 26729 ft | 460 kts | 355° |
| 2026-04-30 14:31 | 29.04827 | 120.75951 | 26734 ft | 458 kts | 355° |
| 2026-04-30 14:31 | 29.11244 | 120.76607 | 26733 ft | 460 kts | 355° |
| 2026-04-30 14:31 | 29.14436 | 120.76932 | 26723 ft | 463 kts | 355° |
| 2026-04-30 14:32 | 29.20841 | 120.77589 | 26728 ft | 459 kts | 355° |
| 2026-04-30 14:32 | 29.24040 | 120.77924 | 26725 ft | 458 kts | 354° |
| 2026-04-30 14:32 | 29.27203 | 120.78252 | 26737 ft | 458 kts | 355° |
| 2026-04-30 14:33 | 29.30392 | 120.78580 | 26723 ft | 461 kts | 355° |
| 2026-04-30 14:33 | 29.36746 | 120.79239 | 26714 ft | 458 kts | 354° |
| 2026-04-30 14:33 | 29.39975 | 120.79570 | 26724 ft | 460 kts | 354° |
| 2026-04-30 14:34 | 29.43156 | 120.79898 | 26727 ft | 459 kts | 355° |
| 2026-04-30 14:34 | 29.46324 | 120.80228 | 26718 ft | 460 kts | 354° |
| 2026-04-30 14:34 | 29.49522 | 120.80562 | 26723 ft | 457 kts | 354° |
| 2026-04-30 14:34 | 29.52707 | 120.80959 | 26723 ft | 463 kts | 358° |
| 2026-04-30 14:35 | 29.58997 | 120.83347 | 26700 ft | 501 kts | 20° |
| 2026-04-30 14:35 | 29.61823 | 120.85809 | 26724 ft | 521 kts | 33° |
| 2026-04-30 14:35 | 29.64234 | 120.89008 | 26733 ft | 533 kts | 44° |
| 2026-04-30 14:36 | 29.66390 | 120.92480 | 26710 ft | 540 kts | 46° |
| 2026-04-30 14:36 | 29.68507 | 120.96088 | 26723 ft | 542 kts | 47° |
| 2026-04-30 14:36 | 29.70561 | 120.99681 | 26714 ft | 545 kts | 49° |
| 2026-04-30 14:36 | 29.72621 | 121.03327 | 26723 ft | 542 kts | 49° |
| 2026-04-30 14:37 | 29.74680 | 121.06992 | 26724 ft | 544 kts | 48° |
| 2026-04-30 14:37 | 29.76732 | 121.10644 | 26713 ft | 540 kts | 49° |
| 2026-04-30 14:37 | 29.78786 | 121.14285 | 26708 ft | 546 kts | 49° |
| 2026-04-30 14:37 | 29.80842 | 121.17920 | 26705 ft | 547 kts | 48° |
| 2026-04-30 14:38 | 29.82933 | 121.21607 | 26716 ft | 545 kts | 48° |
| 2026-04-30 14:38 | 29.84975 | 121.25204 | 26714 ft | 543 kts | 47° |
| 2026-04-30 14:38 | 29.87141 | 121.28794 | 26717 ft | 533 kts | 45° |
| 2026-04-30 14:38 | 29.89419 | 121.31986 | 26714 ft | 502 kts | 36° |
| 2026-04-30 14:39 | 29.91950 | 121.34574 | 26712 ft | 467 kts | 25° |
| 2026-04-30 14:39 | 29.94585 | 121.36627 | 26718 ft | 447 kts | 19° |
| 2026-04-30 14:39 | 29.97234 | 121.38420 | 26724 ft | 440 kts | 16° |
| 2026-04-30 14:40 | 30.02606 | 121.41735 | 26729 ft | 443 kts | 15° |
| 2026-04-30 14:40 | 30.05361 | 121.43400 | 26709 ft | 443 kts | 15° |
| 2026-04-30 14:40 | 30.08046 | 121.45039 | 26710 ft | 441 kts | 15° |
| 2026-04-30 14:40 | 30.10796 | 121.46722 | 26717 ft | 447 kts | 15° |
| 2026-04-30 14:41 | 30.13556 | 121.48423 | 26719 ft | 447 kts | 15° |
| 2026-04-30 14:41 | 30.16281 | 121.50133 | 26691 ft | 443 kts | 17° |
| 2026-04-30 14:41 | 30.18929 | 121.51835 | 26481 ft | 436 kts | 16° |
| 2026-04-30 14:41 | 30.21561 | 121.53512 | 26238 ft | 427 kts | 16° |
| 2026-04-30 14:42 | 30.24165 | 121.55157 | 25993 ft | 419 kts | 15° |
| 2026-04-30 14:42 | 30.26724 | 121.56757 | 25748 ft | 419 kts | 15° |
| 2026-04-30 14:42 | 30.29250 | 121.58322 | 25536 ft | 413 kts | 15° |
| 2026-04-30 14:42 | 30.31800 | 121.59901 | 24926 ft | 413 kts | 15° |
| 2026-04-30 14:43 | 30.34319 | 121.61453 | 24271 ft | 414 kts | 15° |
| 2026-04-30 14:43 | 30.36854 | 121.63020 | 23741 ft | 412 kts | 16° |
| 2026-04-30 14:43 | 30.39358 | 121.64579 | 23470 ft | 402 kts | 16° |
| 2026-04-30 14:43 | 30.41801 | 121.66108 | 22945 ft | 400 kts | 17° |
| 2026-04-30 14:44 | 30.44239 | 121.67628 | 22422 ft | 397 kts | 17° |
| 2026-04-30 14:44 | 30.46679 | 121.69152 | 21949 ft | 393 kts | 17° |
| 2026-04-30 14:44 | 30.49057 | 121.70637 | 21441 ft | 390 kts | 17° |
| 2026-04-30 14:44 | 30.51420 | 121.72116 | 20983 ft | 385 kts | 17° |
| 2026-04-30 14:45 | 30.53789 | 121.73598 | 20371 ft | 385 kts | 18° |
| 2026-04-30 14:45 | 30.56108 | 121.75051 | 20056 ft | 376 kts | 18° |
| 2026-04-30 14:45 | 30.58400 | 121.76482 | 19436 ft | 376 kts | 17° |
| 2026-04-30 14:45 | 30.60724 | 121.77792 | 18938 ft | 367 kts | 13° |
| 2026-04-30 14:46 | 30.63099 | 121.78844 | 18464 ft | 356 kts | 7° |
| 2026-04-30 14:46 | 30.65438 | 121.79620 | 17907 ft | 350 kts | 4° |
| 2026-04-30 14:46 | 30.67792 | 121.80272 | 17533 ft | 341 kts | 3° |
| 2026-04-30 14:46 | 30.70098 | 121.80881 | 17043 ft | 338 kts | 2° |
| 2026-04-30 14:47 | 30.72376 | 121.81483 | 16433 ft | 339 kts | 4° |
| 2026-04-30 14:47 | 30.74675 | 121.82107 | 16031 ft | 333 kts | 4° |
| 2026-04-30 14:47 | 30.76918 | 121.82732 | 15505 ft | 330 kts | 5° |
| 2026-04-30 14:47 | 30.79128 | 121.83353 | 15021 ft | 327 kts | 5° |
| 2026-04-30 14:48 | 30.81345 | 121.83979 | 14521 ft | 324 kts | 5° |
| 2026-04-30 14:48 | 30.83526 | 121.84598 | 14071 ft | 320 kts | 6° |
| 2026-04-30 14:48 | 30.85663 | 121.85205 | 13621 ft | 316 kts | 6° |
| 2026-04-30 14:48 | 30.87781 | 121.85808 | 13390 ft | 305 kts | 6° |
| 2026-04-30 14:49 | 30.89798 | 121.86386 | 13255 ft | 292 kts | 6° |
| 2026-04-30 14:49 | 30.91763 | 121.86945 | 12940 ft | 289 kts | 6° |
| 2026-04-30 14:49 | 30.93691 | 121.87649 | 12444 ft | 289 kts | 15° |
| 2026-04-30 14:49 | 30.95487 | 121.88711 | 11985 ft | 292 kts | 22° |
| 2026-04-30 14:50 | 30.98954 | 121.91210 | 11051 ft | 292 kts | 24° |
| 2026-04-30 14:50 | 31.00660 | 121.92429 | 10587 ft | 288 kts | 24° |
| 2026-04-30 14:51 | 31.04086 | 121.94803 | 9638 ft | 284 kts | 24° |
| 2026-04-30 14:51 | 31.05789 | 121.95966 | 9162 ft | 281 kts | 23° |
| 2026-04-30 14:51 | 31.09369 | 121.97190 | 8080 ft | 264 kts | 347° |
| 2026-04-30 14:52 | 31.11108 | 121.96622 | 7492 ft | 258 kts | 338° |
| 2026-04-30 14:52 | 31.14435 | 121.95157 | 6286 ft | 252 kts | 340° |
| 2026-04-30 14:52 | 31.16080 | 121.94511 | 5662 ft | 252 kts | 341° |
| 2026-04-30 14:53 | 31.19424 | 121.93259 | 4305 ft | 253 kts | 341° |
| 2026-04-30 14:53 | 31.21091 | 121.92635 | 3630 ft | 254 kts | 341° |
| 2026-04-30 14:54 | 31.24449 | 121.91371 | 2491 ft | 245 kts | 341° |
| 2026-04-30 14:54 | 31.27551 | 121.90205 | 1984 ft | 229 kts | 341° |
| 2026-04-30 14:55 | 31.30335 | 121.89156 | 1919 ft | 190 kts | 340° |
| 2026-04-30 14:55 | 31.31557 | 121.88694 | 1937 ft | 174 kts | 340° |
| 2026-04-30 14:55 | 31.33806 | 121.87843 | 1927 ft | 169 kts | 340° |
| 2026-04-30 14:56 | 31.36051 | 121.86997 | 1925 ft | 168 kts | 340° |
| 2026-04-30 14:56 | 31.38195 | 121.86189 | 1920 ft | 157 kts | 339° |
| 2026-04-30 14:57 | 31.39246 | 121.85789 | 1922 ft | 158 kts | 340° |
| 2026-04-30 14:57 | 31.41323 | 121.85004 | 1923 ft | 157 kts | 340° |
| 2026-04-30 14:58 | 31.43382 | 121.84196 | 1925 ft | 155 kts | 333° |
| 2026-04-30 14:58 | 31.44201 | 121.83405 | 1917 ft | 154 kts | 301° |
| 2026-04-30 14:58 | 31.44563 | 121.80975 | 1922 ft | 156 kts | 260° |
| 2026-04-30 14:59 | 31.44036 | 121.78521 | 1924 ft | 155 kts | 260° |
| 2026-04-30 15:00 | 31.43341 | 121.74792 | 1923 ft | 155 kts | 259° |
| 2026-04-30 15:00 | 31.42207 | 121.72691 | 1948 ft | 164 kts | 210° |
| 2026-04-30 15:01 | 31.39934 | 121.72469 | 1952 ft | 173 kts | 163° |
| 2026-04-30 15:01 | 31.38812 | 121.72960 | 1943 ft | 170 kts | 162° |
| 2026-04-30 15:01 | 31.36536 | 121.73838 | 1952 ft | 171 kts | 165° |
| 2026-04-30 15:02 | 31.35403 | 121.74264 | 1952 ft | 170 kts | 165° |
| 2026-04-30 15:02 | 31.34275 | 121.74706 | 1957 ft | 170 kts | 163° |
| 2026-04-30 15:03 | 31.30885 | 121.75922 | 1972 ft | 164 kts | 164° |
| 2026-04-30 15:03 | 31.28770 | 121.76753 | 1963 ft | 158 kts | 164° |
| 2026-04-30 15:04 | 31.26647 | 121.77582 | 1971 ft | 159 kts | 163° |
| 2026-04-30 15:04 | 31.23496 | 121.78869 | 1700 ft | 157 kts | 164° |
| 2026-04-30 15:05 | 31.20388 | 121.79984 | 876 ft | 152 kts | 167° |
| 2026-04-30 15:06 | 31.18539 | 121.80684 | 508 ft | 134 kts | 164° |
| 2026-04-30 15:06 | 31.16763 | 121.81341 | 195 ft | 136 kts | 162° |
| 2026-04-30 15:07 | 31.15033 | 121.81982 | 21 ft | 92 kts | 162° |
| 2026-04-30 15:07 | 31.14447 | 121.82181 | 21 ft | 26 kts | 183° |
| 2026-04-30 15:08 | 31.14274 | 121.82156 | 21 ft | 0 kts | 191° |
| 2026-04-30 15:08 | 31.14136 | 121.82130 | 21 ft | 11 kts | 184° |
| 2026-04-30 15:09 | 31.13920 | 121.82197 | 21 ft | 19 kts | 162° |
| 2026-04-30 15:09 | 31.13711 | 121.82275 | 21 ft | 13 kts | 169° |
| 2026-04-30 15:10 | 31.13635 | 121.82137 | 21 ft | 15 kts | 251° |
| 2026-04-30 15:11 | 31.13579 | 121.81939 | 21 ft | 1 kts | 251° |
| 2026-04-30 15:11 | 31.13552 | 121.81842 | 21 ft | 10 kts | 252° |
| 2026-04-30 15:12 | 31.13495 | 121.81549 | 21 ft | 13 kts | 321° |
| 2026-04-30 15:13 | 31.13623 | 121.81496 | 21 ft | 11 kts | 340° |
| 2026-04-30 15:14 | 31.13659 | 121.81364 | 21 ft | 0 kts | 253° |